Terminal Aerodrome Forecast
Issued by NWS

Home | Current Version | Previous Version | Text Only | Print | Product List | Glossary On
Versions: 1 2 3 4 5 6 7 8 9 10 11 12 13 14 15 16 17 18 19 20 21 22 23 24 25 26
000
FTPA31 PHFO 010700 AAA
TAFPPG
TAF AMD
NSTU 010702Z 0107/0206 11016KT P6SM VCSH SCT020 BKN045
      TEMPO 0107/0110 5SM SHRA BR BKN018
     FM011000 11015KT P6SM VCSH BKN020 OVC045
     FM011800 11016KT P6SM VCSH SCT020 BKN045=

USA.gov is the U.S. government's official web portal to all federal, state and local government web resources and services.